Louis Cristal — 9HA2978 — position and weather

sailwx.info

Track history (hours):
 
Tides and Currents Weather Stations Pressure Air Temp Water Temp Dewpoint Dewpoint Depression Visibility Wind Speed Wind Dir Waves Ship Positions

Louis Cristal

Last reported at 2014-Nov-26 10:25 UTC. Time now 2014-Nov-26 11:17 UTC.
Position N 37°56' E 023°38'.

Length 162 m; draft 6 m.

Type: Passenger vessel. MMSI: 229001000.

Date/timePositionNaut miles runAvg speedWind from/ knotsBaromVisibWave heightAir tempDewpointWater temp
2014-Nov-26 10:25N 37°56' E 023°38'0 0.0
2014-Nov-26 09:31N 37°56' E 023°38'0 0.0
2014-Nov-26 08:31N 37°56' E 023°38'0 0.0
2014-Nov-26 07:31N 37°56' E 023°38'0 0.0
2014-Nov-26 06:31N 37°56' E 023°38'0 0.0
2014-Nov-26 05:31N 37°56' E 023°38'0 0.0
2014-Nov-26 04:31N 37°56' E 023°38'0 0.0
2014-Nov-26 03:31N 37°56' E 023°38'0 0.0
2014-Nov-26 02:31N 37°56' E 023°38'0 0.0
2014-Nov-26 01:31N 37°56' E 023°38'0 0.0
2014-Nov-26 00:31N 37°56' E 023°38'0 0.0
2014-Nov-25 23:31N 37°56' E 023°38'0 0.0
2014-Nov-25 22:31N 37°56' E 023°38'0 0.0
2014-Nov-25 21:31N 37°56' E 023°38'0 0.0
2014-Nov-25 20:31N 37°56' E 023°38'0 0.0
2014-Nov-25 19:31N 37°56' E 023°38'0 0.0
2014-Nov-25 18:33N 37°56' E 023°38'0 0.0
2014-Nov-25 17:33N 37°56' E 023°38'0 0.3
2014-Nov-25 16:33N 37°56' E 023°38'1010.0
2014-Nov-25 15:34N 37°46' E 023°37'6 6.1
2014-Nov-25 14:33N 37°40' E 023°36'1 1.0
2014-Nov-25 13:33N 37°39' E 023°37'2 1.7
2014-Nov-25 12:34N 37°39' E 023°34'1616.4
2014-Nov-25 11:33N 37°55' E 023°37'2 1.8
2014-Nov-25 10:28N 37°57' E 023°36'0 0.0
2014-Nov-25 09:31N 37°57' E 023°36'0 0.0
2014-Nov-25 08:31N 37°57' E 023°36'0 0.0
2014-Nov-25 07:28N 37°57' E 023°36'0 0.0
2014-Nov-25 06:31N 37°57' E 023°36'0 0.0
2014-Nov-25 05:31N 37°57' E 023°36'0 0.0
2014-Nov-25 04:31N 37°57' E 023°36'0 0.0
2014-Nov-25 03:28N 37°57' E 023°36'0 0.0
2014-Nov-25 02:31N 37°57' E 023°36'0 0.0
2014-Nov-25 01:28N 37°57' E 023°36'0 0.0
2014-Nov-25 00:31N 37°57' E 023°36'0 0.0
2014-Nov-24 23:31N 37°57' E 023°36'0 0.0
2014-Nov-24 22:31N 37°57' E 023°36'0 0.0
2014-Nov-24 21:28N 37°57' E 023°36'0 0.0
2014-Nov-24 20:31N 37°57' E 023°36'0 0.0
2014-Nov-24 19:31N 37°57' E 023°36'0 0.0
2014-Nov-24 18:31N 37°57' E 023°36'0 0.0
2014-Nov-24 17:31N 37°57' E 023°36'0 0.0
2014-Nov-24 16:31N 37°57' E 023°36'0 0.0
2014-Nov-24 15:31N 37°57' E 023°36'0 0.0
2014-Nov-24 14:31N 37°57' E 023°36'0 0.0
2014-Nov-24 13:31N 37°57' E 023°36'0 0.0
2014-Nov-24 12:31N 37°57' E 023°36'0 0.0
2014-Nov-24 11:31N 37°57' E 023°36'0 0.0
2014-Nov-24 10:31N 37°57' E 023°36'0 0.0
2014-Nov-24 09:31N 37°57' E 023°36'0 0.0
2014-Nov-24 08:31N 37°57' E 023°36'0 0.0
2014-Nov-24 07:31N 37°57' E 023°36'0 0.0
2014-Nov-24 06:31N 37°57' E 023°36'0 0.0
2014-Nov-24 05:31N 37°57' E 023°36'0 0.0
2014-Nov-24 04:31N 37°57' E 023°36'0 0.0
2014-Nov-24 03:31N 37°57' E 023°36'0 0.0
2014-Nov-24 02:31N 37°57' E 023°36'0 0.0
2014-Nov-24 01:31N 37°57' E 023°36'0 0.0
2014-Nov-24 00:31N 37°57' E 023°36'0 0.0
2014-Nov-23 23:31N 37°57' E 023°36'0 0.0
2014-Nov-23 22:31N 37°57' E 023°36'0 0.0
2014-Nov-23 21:31N 37°57' E 023°36'0 0.0
2014-Nov-23 20:31N 37°57' E 023°36'0 0.0
2014-Nov-23 19:31N 37°57' E 023°36'0 0.0
2014-Nov-23 18:31N 37°57' E 023°36'0 0.0
2014-Nov-23 17:31N 37°57' E 023°36'0 0.0
2014-Nov-23 16:31N 37°57' E 023°36'0 0.0
2014-Nov-23 15:31N 37°57' E 023°36'0 0.0
2014-Nov-23 14:31N 37°57' E 023°36'0 0.0
2014-Nov-23 13:31N 37°57' E 023°36'0 0.0
2014-Nov-23 12:31N 37°57' E 023°36'0 0.0
2014-Nov-23 11:31N 37°57' E 023°36'0 0.0
2014-Nov-23 10:31N 37°57' E 023°36'0 0.0
2014-Nov-23 09:31N 37°57' E 023°36'0 0.0
2014-Nov-23 08:31N 37°57' E 023°36'0 0.0
2014-Nov-23 07:31N 37°57' E 023°36'0 0.0
2014-Nov-23 06:31N 37°57' E 023°36'0 0.0
2014-Nov-23 05:28N 37°57' E 023°36'0 0.0
2014-Nov-23 04:28N 37°57' E 023°36'0 0.0
2014-Nov-23 03:31N 37°57' E 023°36'0 0.0
2014-Nov-23 02:31N 37°57' E 023°36'0 0.0
2014-Nov-23 01:31N 37°57' E 023°36'0 0.0
2014-Nov-23 00:28N 37°57' E 023°36'0 0.0
2014-Nov-22 23:31N 37°57' E 023°36'0 0.0
2014-Nov-22 22:31N 37°57' E 023°36'0 0.0
2014-Nov-22 21:28N 37°57' E 023°36'0 0.0
2014-Nov-22 20:31N 37°57' E 023°36'0 0.0
2014-Nov-22 19:31N 37°57' E 023°36'0 0.0
2014-Nov-22 18:31N 37°57' E 023°36'0 0.0
2014-Nov-22 17:25N 37°57' E 023°36'0 0.0
2014-Nov-22 16:31N 37°57' E 023°36'0 0.0
2014-Nov-22 15:31N 37°57' E 023°36'0 0.0
2014-Nov-22 14:31N 37°57' E 023°36'0 0.0
2014-Nov-22 13:31N 37°57' E 023°36'0 0.0
2014-Nov-22 12:28N 37°57' E 023°36'0 0.0
2014-Nov-22 11:28N 37°57' E 023°36'0 0.0
2014-Nov-22 10:28N 37°57' E 023°36'0 0.0
2014-Nov-22 09:31N 37°57' E 023°36'0 0.0
2014-Nov-22 08:31N 37°57' E 023°36'0 0.0
2014-Nov-22 07:28N 37°57' E 023°36'0 0.1
2014-Nov-22 06:31N 37°57' E 023°36'0 0.1
2014-Nov-22 05:31N 37°57' E 023°36'0 0.0
2014-Nov-22 04:31N 37°57' E 023°36'0 0.0
2014-Nov-22 03:28N 37°57' E 023°36'0 0.0
2014-Nov-22 02:31N 37°57' E 023°36'0 0.0
2014-Nov-22 01:31N 37°57' E 023°36'0 0.0
2014-Nov-22 00:31N 37°57' E 023°36'0 0.0
2014-Nov-21 23:31N 37°57' E 023°36'0 0.0
2014-Nov-21 22:31N 37°57' E 023°36'0 0.0
2014-Nov-21 21:31N 37°57' E 023°36'0 0.0
2014-Nov-21 20:31N 37°57' E 023°36'0 0.0
2014-Nov-21 19:31N 37°57' E 023°36'0 0.0
2014-Nov-21 18:31N 37°57' E 023°36'0 0.0
2014-Nov-21 17:31N 37°57' E 023°36'0 0.0
2014-Nov-21 16:31N 37°57' E 023°36'0 0.0
2014-Nov-21 15:31N 37°57' E 023°36'0 0.0
2014-Nov-21 14:28N 37°57' E 023°36'0 0.0
2014-Nov-21 13:31N 37°57' E 023°36'0 0.0
2014-Nov-21 12:31N 37°57' E 023°36'0 0.0
2014-Nov-21 11:31N 37°57' E 023°36'0 0.0
2014-Nov-21 10:31N 37°57' E 023°36'0 0.0
2014-Nov-21 09:31N 37°57' E 023°36'0 0.0
2014-Nov-21 08:31N 37°57' E 023°36'0 0.0
2014-Nov-21 07:31N 37°57' E 023°36'0 0.0
2014-Nov-21 06:31N 37°57' E 023°36'0 0.0
2014-Nov-21 05:31N 37°57' E 023°36'0 0.0
2014-Nov-21 04:31N 37°57' E 023°36'0 0.0
2014-Nov-21 03:28N 37°57' E 023°36'0 0.0
2014-Nov-21 02:31N 37°57' E 023°36'0 0.0
2014-Nov-21 01:31N 37°57' E 023°36'0 0.0
2014-Nov-21 00:19N 37°57' E 023°36'0 0.0
2014-Nov-20 23:31N 37°57' E 023°36'0 0.0
2014-Nov-20 22:31N 37°57' E 023°36'0 0.0
2014-Nov-20 21:31N 37°57' E 023°36'0 0.0
2014-Nov-20 20:31N 37°57' E 023°36'0 0.0
2014-Nov-20 19:31N 37°57' E 023°36'0 0.0
2014-Nov-20 18:31N 37°57' E 023°36'0 0.0
2014-Nov-20 17:31N 37°57' E 023°36'0 0.0
2014-Nov-20 16:31N 37°57' E 023°36'0 0.0
2014-Nov-20 15:31N 37°57' E 023°36'0 0.0
2014-Nov-20 14:31N 37°57' E 023°36'0 0.0
2014-Nov-20 13:31N 37°57' E 023°36'0 0.0
2014-Nov-20 12:31N 37°57' E 023°36'0 0.0
2014-Nov-20 11:31N 37°57' E 023°36'0 0.0
2014-Nov-20 10:31N 37°57' E 023°36'0 0.0
2014-Nov-20 09:31N 37°57' E 023°36'0 0.0
2014-Nov-20 08:31N 37°57' E 023°36'0 0.0
2014-Nov-20 07:31N 37°57' E 023°36'0 0.0
2014-Nov-20 06:31N 37°57' E 023°36'0 0.0
2014-Nov-20 05:13N 37°57' E 023°36'0 0.0
2014-Nov-20 04:31N 37°57' E 023°36'0 0.0
2014-Nov-20 03:07N 37°57' E 023°36'0 0.0
2014-Nov-20 02:25N 37°57' E 023°36'0 0.0
2014-Nov-20 01:31N 37°57' E 023°36'0 0.0
2014-Nov-20 00:31N 37°57' E 023°36'0 0.0
2014-Nov-19 23:31N 37°57' E 023°36'0 0.0
2014-Nov-19 22:31N 37°57' E 023°36'0 0.0
2014-Nov-19 21:31N 37°57' E 023°36'0 0.0
2014-Nov-19 20:31N 37°57' E 023°36'0 0.0
2014-Nov-19 19:31N 37°57' E 023°36'0 0.0
2014-Nov-19 18:31N 37°57' E 023°36'0 0.0
2014-Nov-19 17:31N 37°57' E 023°36'0 0.0
2014-Nov-19 16:31N 37°57' E 023°36'0 0.0
2014-Nov-19 15:34N 37°57' E 023°36'0 0.0
2014-Nov-19 14:34N 37°57' E 023°36'0 0.0
2014-Nov-19 13:34N 37°57' E 023°36'0 0.0
2014-Nov-19 12:34N 37°57' E 023°36'0 0.0
2014-Nov-19 11:34N 37°57' E 023°36'0 0.0
2014-Nov-19 10:34N 37°57' E 023°36'0 0.0
2014-Nov-19 09:33N 37°57' E 023°36'0 0.0
2014-Nov-19 08:34N 37°57' E 023°36'0 0.0
2014-Nov-19 07:34N 37°57' E 023°36'0 0.0
2014-Nov-19 06:34N 37°57' E 023°36'0 0.0
2014-Nov-19 05:34N 37°57' E 023°36'0 0.0
2014-Nov-19 04:34N 37°57' E 023°36'0 0.0
2014-Nov-19 03:34N 37°57' E 023°36'0 0.0
2014-Nov-19 02:34N 37°57' E 023°36'0 0.0
2014-Nov-19 01:34N 37°57' E 023°36'0 0.0
2014-Nov-19 00:34N 37°57' E 023°36'0 0.0
2014-Nov-18 23:34N 37°57' E 023°36'0 0.0
2014-Nov-18 22:34N 37°57' E 023°36'0 0.0
2014-Nov-18 21:34N 37°57' E 023°36'0 0.0
2014-Nov-18 20:34N 37°57' E 023°36'0 0.0
2014-Nov-18 19:33N 37°57' E 023°36'0 0.0
2014-Nov-18 18:34N 37°57' E 023°36'8 7.7
2014-Nov-18 17:34N 37°50' E 023°40'1313.1
2014-Nov-18 16:33N 37°39' E 023°49'1313.3
2014-Nov-18 15:33N 37°34' E 024°05'1413.1
2014-Nov-18 14:27N 37°31' E 024°22'1213.2
2014-Nov-18 13:34N 37°31' E 024°37'1512.8
2014-Nov-18 12:25N 37°31' E 024°56'5 6.0
2014-Nov-18 11:33N 37°26' E 024°57'0 0.0
2014-Nov-18 10:33N 37°26' E 024°57'0 0.0
2014-Nov-18 09:33N 37°26' E 024°57'0 0.0
2014-Nov-18 08:30N 37°26' E 024°57'0 0.0
2014-Nov-18 07:33N 37°26' E 024°57'0 0.0
2014-Nov-18 06:33N 37°26' E 024°57'0 0.0
2014-Nov-18 05:30N 37°26' E 024°57'0 0.0
2014-Nov-18 04:33N 37°26' E 024°57'0 0.0
2014-Nov-18 03:33N 37°26' E 024°57'0 0.0
2014-Nov-18 02:33N 37°26' E 024°57'0 0.0
2014-Nov-18 01:33N 37°26' E 024°57'0 0.0
2014-Nov-18 00:33N 37°26' E 024°57'0 0.0
2014-Nov-17 23:33N 37°26' E 024°57'0 0.0
2014-Nov-17 22:27N 37°26' E 024°57'0 0.0
2014-Nov-17 21:33N 37°26' E 024°57'0 0.0
2014-Nov-17 20:27N 37°26' E 024°57'0 0.0
2014-Nov-17 19:33N 37°26' E 024°57'0 0.0
2014-Nov-17 18:33N 37°26' E 024°57'0 0.0
2014-Nov-17 17:33N 37°26' E 024°57'0 0.0
2014-Nov-17 16:33N 37°26' E 024°57'0 0.0
2014-Nov-17 15:33N 37°26' E 024°57'0 0.0
2014-Nov-17 14:33N 37°26' E 024°57'0 0.0
2014-Nov-17 13:33N 37°26' E 024°57'0 0.0
2014-Nov-17 12:33N 37°26' E 024°57'0 0.0
2014-Nov-17 11:33N 37°26' E 024°57'0 0.0
2014-Nov-17 10:33N 37°26' E 024°57'0 0.0
2014-Nov-17 09:33N 37°26' E 024°57'0 0.0
2014-Nov-17 08:33N 37°26' E 024°57'0 0.0
2014-Nov-17 07:33N 37°26' E 024°57'0 0.0
2014-Nov-17 06:33N 37°26' E 024°57'0 0.0
2014-Nov-17 05:33N 37°26' E 024°57'0 0.0
2014-Nov-17 04:33N 37°26' E 024°57'0 0.0
2014-Nov-17 03:33N 37°26' E 024°57'0 0.0
2014-Nov-17 02:33N 37°26' E 024°57'0 0.0
2014-Nov-17 01:33N 37°26' E 024°57'0 0.0
2014-Nov-17 00:33N 37°26' E 024°57'0 0.0
2014-Nov-16 23:33N 37°26' E 024°57'0 0.0
2014-Nov-16 22:33N 37°26' E 024°57'0 0.0
2014-Nov-16 21:33N 37°26' E 024°57'0 0.0
2014-Nov-16 20:33N 37°26' E 024°57'0 0.0
2014-Nov-16 19:33N 37°26' E 024°57'0 0.0
2014-Nov-16 18:33N 37°26' E 024°57'0 0.0
2014-Nov-16 17:33N 37°26' E 024°57'0 0.0
2014-Nov-16 16:33N 37°26' E 024°57'0 0.0
2014-Nov-16 15:33N 37°26' E 024°57'0 0.0
2014-Nov-16 14:33N 37°26' E 024°57'0 0.0
2014-Nov-16 13:33N 37°26' E 024°57'0 0.0
2014-Nov-16 12:33N 37°26' E 024°57'0 0.0
2014-Nov-16 11:33N 37°26' E 024°57'0 0.0
2014-Nov-16 10:33N 37°26' E 024°57'  
Track history (hours):
 
Tides and Currents Weather Stations Pressure Air Temp Water Temp Dewpoint Dewpoint Depression Visibility Wind Speed Wind Dir Waves Ship Positions

Louis Cristal

Last reported at 2014-Nov-26 10:25 UTC. Time now 2014-Nov-26 11:17 UTC.
Position N 37°56' E 023°38'.

Length 162 m; draft 6 m.

Type: Passenger vessel. MMSI: 229001000.

Date/timePositionNaut miles runAvg speedWind from/ knotsBaromVisibWave heightAir tempDewpointWater temp
2014-Nov-26 10:25N 37°56' E 023°38'0 0.0
2014-Nov-26 09:31N 37°56' E 023°38'0 0.0
2014-Nov-26 08:31N 37°56' E 023°38'0 0.0
2014-Nov-26 07:31N 37°56' E 023°38'0 0.0
2014-Nov-26 06:31N 37°56' E 023°38'0 0.0
2014-Nov-26 05:31N 37°56' E 023°38'0 0.0
2014-Nov-26 04:31N 37°56' E 023°38'0 0.0
2014-Nov-26 03:31N 37°56' E 023°38'0 0.0
2014-Nov-26 02:31N 37°56' E 023°38'0 0.0
2014-Nov-26 01:31N 37°56' E 023°38'0 0.0
2014-Nov-26 00:31N 37°56' E 023°38'0 0.0
2014-Nov-25 23:31N 37°56' E 023°38'0 0.0
2014-Nov-25 22:31N 37°56' E 023°38'0 0.0
2014-Nov-25 21:31N 37°56' E 023°38'0 0.0
2014-Nov-25 20:31N 37°56' E 023°38'0 0.0
2014-Nov-25 19:31N 37°56' E 023°38'0 0.0
2014-Nov-25 18:33N 37°56' E 023°38'0 0.0
2014-Nov-25 17:33N 37°56' E 023°38'0 0.3
2014-Nov-25 16:33N 37°56' E 023°38'1010.0
2014-Nov-25 15:34N 37°46' E 023°37'6 6.1
2014-Nov-25 14:33N 37°40' E 023°36'1 1.0
2014-Nov-25 13:33N 37°39' E 023°37'2 1.7
2014-Nov-25 12:34N 37°39' E 023°34'1616.4
2014-Nov-25 11:33N 37°55' E 023°37'2 1.8
2014-Nov-25 10:28N 37°57' E 023°36'0 0.0
2014-Nov-25 09:31N 37°57' E 023°36'0 0.0
2014-Nov-25 08:31N 37°57' E 023°36'0 0.0
2014-Nov-25 07:28N 37°57' E 023°36'0 0.0
2014-Nov-25 06:31N 37°57' E 023°36'0 0.0
2014-Nov-25 05:31N 37°57' E 023°36'0 0.0
2014-Nov-25 04:31N 37°57' E 023°36'0 0.0
2014-Nov-25 03:28N 37°57' E 023°36'0 0.0
2014-Nov-25 02:31N 37°57' E 023°36'0 0.0
2014-Nov-25 01:28N 37°57' E 023°36'0 0.0
2014-Nov-25 00:31N 37°57' E 023°36'0 0.0
2014-Nov-24 23:31N 37°57' E 023°36'0 0.0
2014-Nov-24 22:31N 37°57' E 023°36'0 0.0
2014-Nov-24 21:28N 37°57' E 023°36'0 0.0
2014-Nov-24 20:31N 37°57' E 023°36'0 0.0
2014-Nov-24 19:31N 37°57' E 023°36'0 0.0
2014-Nov-24 18:31N 37°57' E 023°36'0 0.0
2014-Nov-24 17:31N 37°57' E 023°36'0 0.0
2014-Nov-24 16:31N 37°57' E 023°36'0 0.0
2014-Nov-24 15:31N 37°57' E 023°36'0 0.0
2014-Nov-24 14:31N 37°57' E 023°36'0 0.0
2014-Nov-24 13:31N 37°57' E 023°36'0 0.0
2014-Nov-24 12:31N 37°57' E 023°36'0 0.0
2014-Nov-24 11:31N 37°57' E 023°36'0 0.0
2014-Nov-24 10:31N 37°57' E 023°36'0 0.0
2014-Nov-24 09:31N 37°57' E 023°36'0 0.0
2014-Nov-24 08:31N 37°57' E 023°36'0 0.0
2014-Nov-24 07:31N 37°57' E 023°36'0 0.0
2014-Nov-24 06:31N 37°57' E 023°36'0 0.0
2014-Nov-24 05:31N 37°57' E 023°36'0 0.0
2014-Nov-24 04:31N 37°57' E 023°36'0 0.0
2014-Nov-24 03:31N 37°57' E 023°36'0 0.0
2014-Nov-24 02:31N 37°57' E 023°36'0 0.0
2014-Nov-24 01:31N 37°57' E 023°36'0 0.0
2014-Nov-24 00:31N 37°57' E 023°36'0 0.0
2014-Nov-23 23:31N 37°57' E 023°36'0 0.0
2014-Nov-23 22:31N 37°57' E 023°36'0 0.0
2014-Nov-23 21:31N 37°57' E 023°36'0 0.0
2014-Nov-23 20:31N 37°57' E 023°36'0 0.0
2014-Nov-23 19:31N 37°57' E 023°36'0 0.0
2014-Nov-23 18:31N 37°57' E 023°36'0 0.0
2014-Nov-23 17:31N 37°57' E 023°36'0 0.0
2014-Nov-23 16:31N 37°57' E 023°36'0 0.0
2014-Nov-23 15:31N 37°57' E 023°36'0 0.0
2014-Nov-23 14:31N 37°57' E 023°36'0 0.0
2014-Nov-23 13:31N 37°57' E 023°36'0 0.0
2014-Nov-23 12:31N 37°57' E 023°36'0 0.0
2014-Nov-23 11:31N 37°57' E 023°36'0 0.0
2014-Nov-23 10:31N 37°57' E 023°36'0 0.0
2014-Nov-23 09:31N 37°57' E 023°36'0 0.0
2014-Nov-23 08:31N 37°57' E 023°36'0 0.0
2014-Nov-23 07:31N 37°57' E 023°36'0 0.0
2014-Nov-23 06:31N 37°57' E 023°36'0 0.0
2014-Nov-23 05:28N 37°57' E 023°36'0 0.0
2014-Nov-23 04:28N 37°57' E 023°36'0 0.0
2014-Nov-23 03:31N 37°57' E 023°36'0 0.0
2014-Nov-23 02:31N 37°57' E 023°36'0 0.0
2014-Nov-23 01:31N 37°57' E 023°36'0 0.0
2014-Nov-23 00:28N 37°57' E 023°36'0 0.0
2014-Nov-22 23:31N 37°57' E 023°36'0 0.0
2014-Nov-22 22:31N 37°57' E 023°36'0 0.0
2014-Nov-22 21:28N 37°57' E 023°36'0 0.0
2014-Nov-22 20:31N 37°57' E 023°36'0 0.0
2014-Nov-22 19:31N 37°57' E 023°36'0 0.0
2014-Nov-22 18:31N 37°57' E 023°36'0 0.0
2014-Nov-22 17:25N 37°57' E 023°36'0 0.0
2014-Nov-22 16:31N 37°57' E 023°36'0 0.0
2014-Nov-22 15:31N 37°57' E 023°36'0 0.0
2014-Nov-22 14:31N 37°57' E 023°36'0 0.0
2014-Nov-22 13:31N 37°57' E 023°36'0 0.0
2014-Nov-22 12:28N 37°57' E 023°36'0 0.0
2014-Nov-22 11:28N 37°57' E 023°36'0 0.0
2014-Nov-22 10:28N 37°57' E 023°36'0 0.0
2014-Nov-22 09:31N 37°57' E 023°36'0 0.0
2014-Nov-22 08:31N 37°57' E 023°36'0 0.0
2014-Nov-22 07:28N 37°57' E 023°36'0 0.1
2014-Nov-22 06:31N 37°57' E 023°36'0 0.1
2014-Nov-22 05:31N 37°57' E 023°36'0 0.0
2014-Nov-22 04:31N 37°57' E 023°36'0 0.0
2014-Nov-22 03:28N 37°57' E 023°36'0 0.0
2014-Nov-22 02:31N 37°57' E 023°36'0 0.0
2014-Nov-22 01:31N 37°57' E 023°36'0 0.0
2014-Nov-22 00:31N 37°57' E 023°36'0 0.0
2014-Nov-21 23:31N 37°57' E 023°36'0 0.0
2014-Nov-21 22:31N 37°57' E 023°36'0 0.0
2014-Nov-21 21:31N 37°57' E 023°36'0 0.0
2014-Nov-21 20:31N 37°57' E 023°36'0 0.0
2014-Nov-21 19:31N 37°57' E 023°36'0 0.0
2014-Nov-21 18:31N 37°57' E 023°36'0 0.0
2014-Nov-21 17:31N 37°57' E 023°36'0 0.0
2014-Nov-21 16:31N 37°57' E 023°36'0 0.0
2014-Nov-21 15:31N 37°57' E 023°36'0 0.0
2014-Nov-21 14:28N 37°57' E 023°36'0 0.0
2014-Nov-21 13:31N 37°57' E 023°36'0 0.0
2014-Nov-21 12:31N 37°57' E 023°36'0 0.0
2014-Nov-21 11:31N 37°57' E 023°36'0 0.0
2014-Nov-21 10:31N 37°57' E 023°36'0 0.0
2014-Nov-21 09:31N 37°57' E 023°36'0 0.0
2014-Nov-21 08:31N 37°57' E 023°36'0 0.0
2014-Nov-21 07:31N 37°57' E 023°36'0 0.0
2014-Nov-21 06:31N 37°57' E 023°36'0 0.0
2014-Nov-21 05:31N 37°57' E 023°36'0 0.0
2014-Nov-21 04:31N 37°57' E 023°36'0 0.0
2014-Nov-21 03:28N 37°57' E 023°36'0 0.0
2014-Nov-21 02:31N 37°57' E 023°36'0 0.0
2014-Nov-21 01:31N 37°57' E 023°36'0 0.0
2014-Nov-21 00:19N 37°57' E 023°36'0 0.0
2014-Nov-20 23:31N 37°57' E 023°36'0 0.0
2014-Nov-20 22:31N 37°57' E 023°36'0 0.0
2014-Nov-20 21:31N 37°57' E 023°36'0 0.0
2014-Nov-20 20:31N 37°57' E 023°36'0 0.0
2014-Nov-20 19:31N 37°57' E 023°36'0 0.0
2014-Nov-20 18:31N 37°57' E 023°36'0 0.0
2014-Nov-20 17:31N 37°57' E 023°36'0 0.0
2014-Nov-20 16:31N 37°57' E 023°36'0 0.0
2014-Nov-20 15:31N 37°57' E 023°36'0 0.0
2014-Nov-20 14:31N 37°57' E 023°36'0 0.0
2014-Nov-20 13:31N 37°57' E 023°36'0 0.0
2014-Nov-20 12:31N 37°57' E 023°36'0 0.0
2014-Nov-20 11:31N 37°57' E 023°36'0 0.0
2014-Nov-20 10:31N 37°57' E 023°36'0 0.0
2014-Nov-20 09:31N 37°57' E 023°36'0 0.0
2014-Nov-20 08:31N 37°57' E 023°36'0 0.0
2014-Nov-20 07:31N 37°57' E 023°36'0 0.0
2014-Nov-20 06:31N 37°57' E 023°36'0 0.0
2014-Nov-20 05:13N 37°57' E 023°36'0 0.0
2014-Nov-20 04:31N 37°57' E 023°36'0 0.0
2014-Nov-20 03:07N 37°57' E 023°36'0 0.0
2014-Nov-20 02:25N 37°57' E 023°36'0 0.0
2014-Nov-20 01:31N 37°57' E 023°36'0 0.0
2014-Nov-20 00:31N 37°57' E 023°36'0 0.0
2014-Nov-19 23:31N 37°57' E 023°36'0 0.0
2014-Nov-19 22:31N 37°57' E 023°36'0 0.0
2014-Nov-19 21:31N 37°57' E 023°36'0 0.0
2014-Nov-19 20:31N 37°57' E 023°36'0 0.0
2014-Nov-19 19:31N 37°57' E 023°36'0 0.0
2014-Nov-19 18:31N 37°57' E 023°36'0 0.0
2014-Nov-19 17:31N 37°57' E 023°36'0 0.0
2014-Nov-19 16:31N 37°57' E 023°36'0 0.0
2014-Nov-19 15:34N 37°57' E 023°36'0 0.0
2014-Nov-19 14:34N 37°57' E 023°36'0 0.0
2014-Nov-19 13:34N 37°57' E 023°36'0 0.0
2014-Nov-19 12:34N 37°57' E 023°36'0 0.0
2014-Nov-19 11:34N 37°57' E 023°36'0 0.0
2014-Nov-19 10:34N 37°57' E 023°36'0 0.0
2014-Nov-19 09:33N 37°57' E 023°36'0 0.0
2014-Nov-19 08:34N 37°57' E 023°36'0 0.0
2014-Nov-19 07:34N 37°57' E 023°36'0 0.0
2014-Nov-19 06:34N 37°57' E 023°36'0 0.0
2014-Nov-19 05:34N 37°57' E 023°36'0 0.0
2014-Nov-19 04:34N 37°57' E 023°36'0 0.0
2014-Nov-19 03:34N 37°57' E 023°36'0 0.0
2014-Nov-19 02:34N 37°57' E 023°36'0 0.0
2014-Nov-19 01:34N 37°57' E 023°36'0 0.0
2014-Nov-19 00:34N 37°57' E 023°36'0 0.0
2014-Nov-18 23:34N 37°57' E 023°36'0 0.0
2014-Nov-18 22:34N 37°57' E 023°36'0 0.0
2014-Nov-18 21:34N 37°57' E 023°36'0 0.0
2014-Nov-18 20:34N 37°57' E 023°36'0 0.0
2014-Nov-18 19:33N 37°57' E 023°36'0 0.0
2014-Nov-18 18:34N 37°57' E 023°36'8 7.7
2014-Nov-18 17:34N 37°50' E 023°40'1313.1
2014-Nov-18 16:33N 37°39' E 023°49'1313.3
2014-Nov-18 15:33N 37°34' E 024°05'1413.1
2014-Nov-18 14:27N 37°31' E 024°22'1213.2
2014-Nov-18 13:34N 37°31' E 024°37'1512.8
2014-Nov-18 12:25N 37°31' E 024°56'5 6.0
2014-Nov-18 11:33N 37°26' E 024°57'0 0.0
2014-Nov-18 10:33N 37°26' E 024°57'0 0.0
2014-Nov-18 09:33N 37°26' E 024°57'0 0.0
2014-Nov-18 08:30N 37°26' E 024°57'0 0.0
2014-Nov-18 07:33N 37°26' E 024°57'0 0.0
2014-Nov-18 06:33N 37°26' E 024°57'0 0.0
2014-Nov-18 05:30N 37°26' E 024°57'0 0.0
2014-Nov-18 04:33N 37°26' E 024°57'0 0.0
2014-Nov-18 03:33N 37°26' E 024°57'0 0.0
2014-Nov-18 02:33N 37°26' E 024°57'0 0.0
2014-Nov-18 01:33N 37°26' E 024°57'0 0.0
2014-Nov-18 00:33N 37°26' E 024°57'0 0.0
2014-Nov-17 23:33N 37°26' E 024°57'0 0.0
2014-Nov-17 22:27N 37°26' E 024°57'0 0.0
2014-Nov-17 21:33N 37°26' E 024°57'0 0.0
2014-Nov-17 20:27N 37°26' E 024°57'0 0.0
2014-Nov-17 19:33N 37°26' E 024°57'0 0.0
2014-Nov-17 18:33N 37°26' E 024°57'0 0.0
2014-Nov-17 17:33N 37°26' E 024°57'0 0.0
2014-Nov-17 16:33N 37°26' E 024°57'0 0.0
2014-Nov-17 15:33N 37°26' E 024°57'0 0.0
2014-Nov-17 14:33N 37°26' E 024°57'0 0.0
2014-Nov-17 13:33N 37°26' E 024°57'0 0.0
2014-Nov-17 12:33N 37°26' E 024°57'0 0.0
2014-Nov-17 11:33N 37°26' E 024°57'0 0.0
2014-Nov-17 10:33N 37°26' E 024°57'0 0.0
2014-Nov-17 09:33N 37°26' E 024°57'0 0.0
2014-Nov-17 08:33N 37°26' E 024°57'0 0.0
2014-Nov-17 07:33N 37°26' E 024°57'0 0.0
2014-Nov-17 06:33N 37°26' E 024°57'0 0.0
2014-Nov-17 05:33N 37°26' E 024°57'0 0.0
2014-Nov-17 04:33N 37°26' E 024°57'0 0.0
2014-Nov-17 03:33N 37°26' E 024°57'0 0.0
2014-Nov-17 02:33N 37°26' E 024°57'0 0.0
2014-Nov-17 01:33N 37°26' E 024°57'0 0.0
2014-Nov-17 00:33N 37°26' E 024°57'0 0.0
2014-Nov-16 23:33N 37°26' E 024°57'0 0.0
2014-Nov-16 22:33N 37°26' E 024°57'0 0.0
2014-Nov-16 21:33N 37°26' E 024°57'0 0.0
2014-Nov-16 20:33N 37°26' E 024°57'0 0.0
2014-Nov-16 19:33N 37°26' E 024°57'0 0.0
2014-Nov-16 18:33N 37°26' E 024°57'0 0.0
2014-Nov-16 17:33N 37°26' E 024°57'0 0.0
2014-Nov-16 16:33N 37°26' E 024°57'0 0.0
2014-Nov-16 15:33N 37°26' E 024°57'0 0.0
2014-Nov-16 14:33N 37°26' E 024°57'0 0.0
2014-Nov-16 13:33N 37°26' E 024°57'0 0.0
2014-Nov-16 12:33N 37°26' E 024°57'0 0.0
2014-Nov-16 11:33N 37°26' E 024°57'0 0.0
2014-Nov-16 10:33N 37°26' E 024°57'  

Dump ship's entire track history